sensor_id;sensor_type;location;lat;lon;timestamp;temperature;humidity
22153;DHT22;11242;50.536;12.688;2023-05-10T00:00:37;10.60;99.90
22153;DHT22;11242;50.536;12.688;2023-05-10T00:03:02;10.50;99.90
22153;DHT22;11242;50.536;12.688;2023-05-10T00:05:30;10.60;99.90
22153;DHT22;11242;50.536;12.688;2023-05-10T00:07:56;10.50;99.90
22153;DHT22;11242;50.536;12.688;2023-05-10T00:10:21;10.60;99.90
22153;DHT22;11242;50.536;12.688;2023-05-10T00:12:47;10.50;99.90
22153;DHT22;11242;50.536;12.688;2023-05-10T00:15:12;10.50;99.90
22153;DHT22;11242;50.536;12.688;2023-05-10T00:17:38;10.60;99.90
22153;DHT22;11242;50.536;12.688;2023-05-10T00:20:04;10.50;99.90
22153;DHT22;11242;50.536;12.688;2023-05-10T00:22:30;10.50;99.90
22153;DHT22;11242;50.536;12.688;2023-05-10T00:24:57;10.40;99.90
22153;DHT22;11242;50.536;12.688;2023-05-10T00:27:22;10.40;99.90
22153;DHT22;11242;50.536;12.688;2023-05-10T00:29:48;10.40;99.90
22153;DHT22;11242;50.536;12.688;2023-05-10T00:32:13;10.30;99.90
22153;DHT22;11242;50.536;12.688;2023-05-10T00:34:39;10.30;99.90
22153;DHT22;11242;50.536;12.688;2023-05-10T00:37:05;10.20;99.90
22153;DHT22;11242;50.536;12.688;2023-05-10T00:39:31;10.20;99.90
22153;DHT22;11242;50.536;12.688;2023-05-10T00:41:57;10.10;99.90
22153;DHT22;11242;50.536;12.688;2023-05-10T00:44:22;10.30;99.90
22153;DHT22;11242;50.536;12.688;2023-05-10T00:46:49;10.10;99.90
22153;DHT22;11242;50.536;12.688;2023-05-10T00:49:15;10.00;99.90
22153;DHT22;11242;50.536;12.688;2023-05-10T00:51:41;9.90;99.90
22153;DHT22;11242;50.536;12.688;2023-05-10T00:54:10;9.80;99.90
22153;DHT22;11242;50.536;12.688;2023-05-10T00:56:36;9.70;99.90
22153;DHT22;11242;50.536;12.688;2023-05-10T00:59:02;9.80;99.90
22153;DHT22;11242;50.536;12.688;2023-05-10T01:01:28;9.70;99.90
22153;DHT22;11242;50.536;12.688;2023-05-10T01:03:55;9.70;99.90
22153;DHT22;11242;50.536;12.688;2023-05-10T01:06:20;9.60;99.90
22153;DHT22;11242;50.536;12.688;2023-05-10T01:08:46;9.60;99.90
22153;DHT22;11242;50.536;12.688;2023-05-10T01:11:13;9.40;99.90
22153;DHT22;11242;50.536;12.688;2023-05-10T01:13:41;9.30;99.90
22153;DHT22;11242;50.536;12.688;2023-05-10T01:16:08;9.20;99.90
22153;DHT22;11242;50.536;12.688;2023-05-10T01:18:38;9.10;99.90
22153;DHT22;11242;50.536;12.688;2023-05-10T01:21:16;9.20;99.90
22153;DHT22;11242;50.536;12.688;2023-05-10T01:24:00;9.20;99.90
22153;DHT22;11242;50.536;12.688;2023-05-10T01:32:56;9.10;99.90
22153;DHT22;11242;50.536;12.688;2023-05-10T01:35:32;9.10;99.90
22153;DHT22;11242;50.536;12.688;2023-05-10T01:38:07;9.00;99.90
22153;DHT22;11242;50.536;12.688;2023-05-10T01:40:42;8.90;99.90
22153;DHT22;11242;50.536;12.688;2023-05-10T01:43:17;8.80;99.90
22153;DHT22;11242;50.536;12.688;2023-05-10T01:46:03;8.90;99.90
22153;DHT22;11242;50.536;12.688;2023-05-10T01:48:38;9.00;99.90
22153;DHT22;11242;50.536;12.688;2023-05-10T01:51:06;9.10;99.90
22153;DHT22;11242;50.536;12.688;2023-05-10T01:53:33;9.20;99.90
22153;DHT22;11242;50.536;12.688;2023-05-10T01:56:01;9.20;99.90
22153;DHT22;11242;50.536;12.688;2023-05-10T01:58:31;9.20;99.90
22153;DHT22;11242;50.536;12.688;2023-05-10T02:01:00;9.20;99.90
22153;DHT22;11242;50.536;12.688;2023-05-10T02:03:27;9.10;99.90
22153;DHT22;11242;50.536;12.688;2023-05-10T02:05:54;9.00;99.90
22153;DHT22;11242;50.536;12.688;2023-05-10T02:08:22;8.90;99.90
22153;DHT22;11242;50.536;12.688;2023-05-10T02:10:50;8.90;99.90
22153;DHT22;11242;50.536;12.688;2023-05-10T02:13:16;8.80;99.90
22153;DHT22;11242;50.536;12.688;2023-05-10T02:15:43;8.90;99.90
22153;DHT22;11242;50.536;12.688;2023-05-10T02:18:12;8.90;99.90
22153;DHT22;11242;50.536;12.688;2023-05-10T02:20:39;8.80;99.90
22153;DHT22;11242;50.536;12.688;2023-05-10T02:23:05;8.70;99.90
22153;DHT22;11242;50.536;12.688;2023-05-10T02:25:32;8.50;99.90
22153;DHT22;11242;50.536;12.688;2023-05-10T02:27:59;8.40;99.90
22153;DHT22;11242;50.536;12.688;2023-05-10T02:30:26;8.40;99.90
22153;DHT22;11242;50.536;12.688;2023-05-10T02:32:53;8.30;99.90
22153;DHT22;11242;50.536;12.688;2023-05-10T02:35:19;8.30;99.90
22153;DHT22;11242;50.536;12.688;2023-05-10T02:37:46;8.30;99.90
22153;DHT22;11242;50.536;12.688;2023-05-10T02:40:12;8.20;99.90
22153;DHT22;11242;50.536;12.688;2023-05-10T02:42:41;8.10;99.90
22153;DHT22;11242;50.536;12.688;2023-05-10T02:45:10;8.10;99.90
22153;DHT22;11242;50.536;12.688;2023-05-10T02:47:36;8.10;99.90
22153;DHT22;11242;50.536;12.688;2023-05-10T02:50:02;7.90;99.90
22153;DHT22;11242;50.536;12.688;2023-05-10T02:52:46;7.90;99.90
22153;DHT22;11242;50.536;12.688;2023-05-10T02:55:14;7.80;99.90
22153;DHT22;11242;50.536;12.688;2023-05-10T02:57:46;7.80;99.90
22153;DHT22;11242;50.536;12.688;2023-05-10T03:00:14;7.90;99.90
22153;DHT22;11242;50.536;12.688;2023-05-10T03:02:39;8.10;99.90
22153;DHT22;11242;50.536;12.688;2023-05-10T03:05:05;8.10;99.90
22153;DHT22;11242;50.536;12.688;2023-05-10T03:07:31;8.20;99.90
22153;DHT22;11242;50.536;12.688;2023-05-10T03:09:58;8.40;99.90
22153;DHT22;11242;50.536;12.688;2023-05-10T03:12:57;8.70;99.90
22153;DHT22;11242;50.536;12.688;2023-05-10T03:15:37;8.80;99.90
22153;DHT22;11242;50.536;12.688;2023-05-10T03:18:12;8.80;99.90
22153;DHT22;11242;50.536;12.688;2023-05-10T03:20:47;8.80;99.90
22153;DHT22;11242;50.536;12.688;2023-05-10T03:23:26;8.80;99.90
22153;DHT22;11242;50.536;12.688;2023-05-10T03:25:53;8.80;99.90
22153;DHT22;11242;50.536;12.688;2023-05-10T03:28:19;9.00;99.90
22153;DHT22;11242;50.536;12.688;2023-05-10T03:30:46;9.10;99.90
22153;DHT22;11242;50.536;12.688;2023-05-10T03:33:12;9.10;99.90
22153;DHT22;11242;50.536;12.688;2023-05-10T03:35:41;9.20;99.90
22153;DHT22;11242;50.536;12.688;2023-05-10T03:38:07;9.30;99.90
22153;DHT22;11242;50.536;12.688;2023-05-10T03:40:32;9.30;99.90
22153;DHT22;11242;50.536;12.688;2023-05-10T03:42:59;9.30;99.90
22153;DHT22;11242;50.536;12.688;2023-05-10T03:45:25;9.30;99.90
22153;DHT22;11242;50.536;12.688;2023-05-10T03:47:51;9.40;99.90
22153;DHT22;11242;50.536;12.688;2023-05-10T03:50:16;9.30;99.90
22153;DHT22;11242;50.536;12.688;2023-05-10T03:52:43;9.30;99.90
22153;DHT22;11242;50.536;12.688;2023-05-10T03:55:10;9.40;99.90
22153;DHT22;11242;50.536;12.688;2023-05-10T03:57:36;9.40;99.90
22153;DHT22;11242;50.536;12.688;2023-05-10T04:00:03;9.40;99.90
22153;DHT22;11242;50.536;12.688;2023-05-10T04:02:39;9.40;99.90
22153;DHT22;11242;50.536;12.688;2023-05-10T04:05:07;9.40;99.90
22153;DHT22;11242;50.536;12.688;2023-05-10T04:07:32;9.40;99.90
22153;DHT22;11242;50.536;12.688;2023-05-10T04:09:58;9.40;99.90
22153;DHT22;11242;50.536;12.688;2023-05-10T04:12:24;9.40;99.90
22153;DHT22;11242;50.536;12.688;2023-05-10T04:14:49;9.50;99.90
22153;DHT22;11242;50.536;12.688;2023-05-10T04:17:15;9.60;99.90
22153;DHT22;11242;50.536;12.688;2023-05-10T04:19:40;9.60;99.90
22153;DHT22;11242;50.536;12.688;2023-05-10T04:22:06;9.70;99.90
22153;DHT22;11242;50.536;12.688;2023-05-10T04:24:31;9.90;99.90
22153;DHT22;11242;50.536;12.688;2023-05-10T04:26:57;9.90;99.90
22153;DHT22;11242;50.536;12.688;2023-05-10T04:29:22;10.10;99.90
22153;DHT22;11242;50.536;12.688;2023-05-10T04:31:48;10.20;99.90
22153;DHT22;11242;50.536;12.688;2023-05-10T04:34:14;10.50;99.90
22153;DHT22;11242;50.536;12.688;2023-05-10T04:36:40;10.70;99.90
22153;DHT22;11242;50.536;12.688;2023-05-10T04:39:05;10.80;99.90
22153;DHT22;11242;50.536;12.688;2023-05-10T04:41:31;11.10;99.90
22153;DHT22;11242;50.536;12.688;2023-05-10T04:43:56;11.40;99.90
22153;DHT22;11242;50.536;12.688;2023-05-10T04:46:22;11.70;99.90
22153;DHT22;11242;50.536;12.688;2023-05-10T04:48:48;11.70;99.90
22153;DHT22;11242;50.536;12.688;2023-05-10T04:51:13;11.70;99.90
22153;DHT22;11242;50.536;12.688;2023-05-10T04:53:39;11.60;99.90
22153;DHT22;11242;50.536;12.688;2023-05-10T04:56:05;11.70;99.90
22153;DHT22;11242;50.536;12.688;2023-05-10T04:58:30;11.80;99.90
22153;DHT22;11242;50.536;12.688;2023-05-10T05:00:56;11.90;99.90
22153;DHT22;11242;50.536;12.688;2023-05-10T05:03:22;12.00;99.90
22153;DHT22;11242;50.536;12.688;2023-05-10T05:05:48;11.90;99.90
22153;DHT22;11242;50.536;12.688;2023-05-10T05:08:13;11.90;99.90
22153;DHT22;11242;50.536;12.688;2023-05-10T05:10:39;12.00;99.90
22153;DHT22;11242;50.536;12.688;2023-05-10T05:13:05;12.10;99.90
22153;DHT22;11242;50.536;12.688;2023-05-10T05:15:31;12.00;99.90
22153;DHT22;11242;50.536;12.688;2023-05-10T05:17:56;12.00;99.90
22153;DHT22;11242;50.536;12.688;2023-05-10T05:20:22;11.90;99.90
22153;DHT22;11242;50.536;12.688;2023-05-10T05:22:48;12.00;99.90
22153;DHT22;11242;50.536;12.688;2023-05-10T05:25:13;12.00;99.90
22153;DHT22;11242;50.536;12.688;2023-05-10T05:27:40;12.00;99.90
22153;DHT22;11242;50.536;12.688;2023-05-10T05:30:06;12.00;99.90
22153;DHT22;11242;50.536;12.688;2023-05-10T05:32:32;11.80;99.90
22153;DHT22;11242;50.536;12.688;2023-05-10T05:34:57;11.90;99.90
22153;DHT22;11242;50.536;12.688;2023-05-10T05:37:23;12.00;99.90
22153;DHT22;11242;50.536;12.688;2023-05-10T05:39:50;12.10;99.90
22153;DHT22;11242;50.536;12.688;2023-05-10T05:42:15;12.10;99.90
22153;DHT22;11242;50.536;12.688;2023-05-10T05:44:43;12.20;99.90
22153;DHT22;11242;50.536;12.688;2023-05-10T05:47:08;12.30;99.90
22153;DHT22;11242;50.536;12.688;2023-05-10T05:49:34;12.30;99.90
22153;DHT22;11242;50.536;12.688;2023-05-10T05:52:00;12.50;99.90
22153;DHT22;11242;50.536;12.688;2023-05-10T05:54:27;12.50;99.90
22153;DHT22;11242;50.536;12.688;2023-05-10T05:56:59;12.60;99.90
22153;DHT22;11242;50.536;12.688;2023-05-10T05:59:26;12.70;99.90
22153;DHT22;11242;50.536;12.688;2023-05-10T06:01:51;12.60;99.90
22153;DHT22;11242;50.536;12.688;2023-05-10T06:04:17;12.60;99.90
22153;DHT22;11242;50.536;12.688;2023-05-10T06:06:43;12.50;99.90
22153;DHT22;11242;50.536;12.688;2023-05-10T06:09:09;12.50;99.90
22153;DHT22;11242;50.536;12.688;2023-05-10T06:11:35;12.40;99.90
22153;DHT22;11242;50.536;12.688;2023-05-10T06:14:01;12.40;99.90
22153;DHT22;11242;50.536;12.688;2023-05-10T06:16:29;12.40;99.90
22153;DHT22;11242;50.536;12.688;2023-05-10T06:18:54;12.50;99.90
22153;DHT22;11242;50.536;12.688;2023-05-10T06:21:20;12.60;99.90
22153;DHT22;11242;50.536;12.688;2023-05-10T06:23:46;12.60;99.90
22153;DHT22;11242;50.536;12.688;2023-05-10T06:26:12;12.70;99.90
22153;DHT22;11242;50.536;12.688;2023-05-10T06:28:39;12.70;99.90
22153;DHT22;11242;50.536;12.688;2023-05-10T06:31:05;12.60;99.90
22153;DHT22;11242;50.536;12.688;2023-05-10T06:33:30;12.60;99.90
22153;DHT22;11242;50.536;12.688;2023-05-10T06:35:56;12.90;99.90
22153;DHT22;11242;50.536;12.688;2023-05-10T06:38:22;13.10;99.90
22153;DHT22;11242;50.536;12.688;2023-05-10T06:40:48;13.10;99.90
22153;DHT22;11242;50.536;12.688;2023-05-10T06:43:13;13.20;99.90
22153;DHT22;11242;50.536;12.688;2023-05-10T06:45:39;13.30;99.90
22153;DHT22;11242;50.536;12.688;2023-05-10T06:48:05;13.30;99.90
22153;DHT22;11242;50.536;12.688;2023-05-10T06:50:30;13.30;99.90
22153;DHT22;11242;50.536;12.688;2023-05-10T06:52:56;13.40;99.90
22153;DHT22;11242;50.536;12.688;2023-05-10T06:55:21;13.40;99.90
22153;DHT22;11242;50.536;12.688;2023-05-10T06:57:47;13.40;99.90
22153;DHT22;11242;50.536;12.688;2023-05-10T07:00:13;13.40;99.90
22153;DHT22;11242;50.536;12.688;2023-05-10T07:02:39;13.20;99.90
22153;DHT22;11242;50.536;12.688;2023-05-10T07:05:05;13.10;99.90
22153;DHT22;11242;50.536;12.688;2023-05-10T07:07:31;13.10;99.90
22153;DHT22;11242;50.536;12.688;2023-05-10T07:09:57;13.10;99.90
22153;DHT22;11242;50.536;12.688;2023-05-10T07:12:23;13.10;99.90
22153;DHT22;11242;50.536;12.688;2023-05-10T07:14:49;13.10;99.90
22153;DHT22;11242;50.536;12.688;2023-05-10T07:17:15;13.10;99.90
22153;DHT22;11242;50.536;12.688;2023-05-10T07:19:40;13.10;99.90
22153;DHT22;11242;50.536;12.688;2023-05-10T07:22:06;13.00;99.90
22153;DHT22;11242;50.536;12.688;2023-05-10T07:24:32;12.90;99.90
22153;DHT22;11242;50.536;12.688;2023-05-10T07:26:58;12.90;99.90
22153;DHT22;11242;50.536;12.688;2023-05-10T07:29:24;12.90;99.90
22153;DHT22;11242;50.536;12.688;2023-05-10T07:31:49;12.70;99.90
22153;DHT22;11242;50.536;12.688;2023-05-10T07:34:15;12.50;99.90
22153;DHT22;11242;50.536;12.688;2023-05-10T07:36:41;12.50;99.90
22153;DHT22;11242;50.536;12.688;2023-05-10T07:39:06;12.40;99.90
22153;DHT22;11242;50.536;12.688;2023-05-10T07:41:32;12.20;99.90
22153;DHT22;11242;50.536;12.688;2023-05-10T07:43:58;12.00;99.90
22153;DHT22;11242;50.536;12.688;2023-05-10T07:46:24;11.80;99.90
22153;DHT22;11242;50.536;12.688;2023-05-10T07:48:49;11.70;99.90
22153;DHT22;11242;50.536;12.688;2023-05-10T07:51:15;11.70;99.90
22153;DHT22;11242;50.536;12.688;2023-05-10T07:53:40;11.60;99.90
22153;DHT22;11242;50.536;12.688;2023-05-10T07:56:24;11.40;99.90
22153;DHT22;11242;50.536;12.688;2023-05-10T07:58:51;11.10;99.90
22153;DHT22;11242;50.536;12.688;2023-05-10T08:01:17;11.20;99.90
22153;DHT22;11242;50.536;12.688;2023-05-10T08:03:42;11.30;99.90
22153;DHT22;11242;50.536;12.688;2023-05-10T08:06:08;11.40;99.90
22153;DHT22;11242;50.536;12.688;2023-05-10T08:08:33;11.50;99.90
22153;DHT22;11242;50.536;12.688;2023-05-10T08:10:59;11.50;99.90
22153;DHT22;11242;50.536;12.688;2023-05-10T08:13:24;11.40;99.90
22153;DHT22;11242;50.536;12.688;2023-05-10T08:15:50;11.30;99.90
22153;DHT22;11242;50.536;12.688;2023-05-10T08:18:18;11.30;99.90
22153;DHT22;11242;50.536;12.688;2023-05-10T08:20:44;11.60;99.90
22153;DHT22;11242;50.536;12.688;2023-05-10T08:23:09;11.70;99.90
22153;DHT22;11242;50.536;12.688;2023-05-10T08:25:35;11.90;99.90
22153;DHT22;11242;50.536;12.688;2023-05-10T08:28:01;12.00;99.90
22153;DHT22;11242;50.536;12.688;2023-05-10T08:30:26;12.10;99.90
22153;DHT22;11242;50.536;12.688;2023-05-10T08:32:52;12.20;99.90
22153;DHT22;11242;50.536;12.688;2023-05-10T08:35:17;12.30;99.90
22153;DHT22;11242;50.536;12.688;2023-05-10T08:37:43;12.10;99.90
22153;DHT22;11242;50.536;12.688;2023-05-10T08:40:11;11.90;99.90
22153;DHT22;11242;50.536;12.688;2023-05-10T08:42:40;12.00;99.90
22153;DHT22;11242;50.536;12.688;2023-05-10T08:45:07;12.20;99.90
22153;DHT22;11242;50.536;12.688;2023-05-10T08:47:36;12.60;99.90
22153;DHT22;11242;50.536;12.688;2023-05-10T08:50:03;12.80;99.90
22153;DHT22;11242;50.536;12.688;2023-05-10T08:52:30;12.90;99.90
22153;DHT22;11242;50.536;12.688;2023-05-10T08:54:56;12.80;99.90
22153;DHT22;11242;50.536;12.688;2023-05-10T08:57:21;13.00;99.90
22153;DHT22;11242;50.536;12.688;2023-05-10T08:59:47;13.10;99.90
22153;DHT22;11242;50.536;12.688;2023-05-10T09:02:13;13.20;99.90
22153;DHT22;11242;50.536;12.688;2023-05-10T09:04:39;13.10;99.90
22153;DHT22;11242;50.536;12.688;2023-05-10T09:07:05;13.10;99.90
22153;DHT22;11242;50.536;12.688;2023-05-10T09:09:31;13.10;99.90
22153;DHT22;11242;50.536;12.688;2023-05-10T09:11:57;12.90;99.90
22153;DHT22;11242;50.536;12.688;2023-05-10T09:14:24;12.70;99.90
22153;DHT22;11242;50.536;12.688;2023-05-10T09:16:50;12.70;99.90
22153;DHT22;11242;50.536;12.688;2023-05-10T09:19:16;12.60;99.90
22153;DHT22;11242;50.536;12.688;2023-05-10T09:21:41;12.50;99.90
22153;DHT22;11242;50.536;12.688;2023-05-10T09:24:08;12.40;99.90
22153;DHT22;11242;50.536;12.688;2023-05-10T09:26:34;12.40;99.90
22153;DHT22;11242;50.536;12.688;2023-05-10T09:29:01;12.30;99.90
22153;DHT22;11242;50.536;12.688;2023-05-10T09:31:48;12.00;99.90
22153;DHT22;11242;50.536;12.688;2023-05-10T09:34:20;12.00;99.90
22153;DHT22;11242;50.536;12.688;2023-05-10T09:36:53;12.10;99.90
22153;DHT22;11242;50.536;12.688;2023-05-10T09:39:19;12.00;99.90
22153;DHT22;11242;50.536;12.688;2023-05-10T09:41:44;12.00;99.90
22153;DHT22;11242;50.536;12.688;2023-05-10T09:44:10;12.20;99.90
22153;DHT22;11242;50.536;12.688;2023-05-10T09:46:36;12.10;99.90
22153;DHT22;11242;50.536;12.688;2023-05-10T09:49:02;12.10;99.90
22153;DHT22;11242;50.536;12.688;2023-05-10T09:51:27;12.10;99.90
22153;DHT22;11242;50.536;12.688;2023-05-10T09:54:16;12.10;99.90
22153;DHT22;11242;50.536;12.688;2023-05-10T09:56:42;12.30;99.90
22153;DHT22;11242;50.536;12.688;2023-05-10T09:59:10;12.40;99.90
22153;DHT22;11242;50.536;12.688;2023-05-10T10:01:36;12.50;99.90
22153;DHT22;11242;50.536;12.688;2023-05-10T10:04:06;12.60;99.90
22153;DHT22;11242;50.536;12.688;2023-05-10T10:06:39;12.60;99.90
22153;DHT22;11242;50.536;12.688;2023-05-10T10:09:05;12.80;99.90
22153;DHT22;11242;50.536;12.688;2023-05-10T10:11:33;12.50;99.90
22153;DHT22;11242;50.536;12.688;2023-05-10T10:13:59;12.20;99.90
22153;DHT22;11242;50.536;12.688;2023-05-10T10:16:28;12.10;99.90
22153;DHT22;11242;50.536;12.688;2023-05-10T10:18:54;12.10;99.90
22153;DHT22;11242;50.536;12.688;2023-05-10T10:21:20;12.00;99.90
22153;DHT22;11242;50.536;12.688;2023-05-10T10:23:46;12.00;99.90
22153;DHT22;11242;50.536;12.688;2023-05-10T10:26:12;12.00;99.90
22153;DHT22;11242;50.536;12.688;2023-05-10T10:28:49;12.10;99.90
22153;DHT22;11242;50.536;12.688;2023-05-10T10:31:34;12.00;99.90
22153;DHT22;11242;50.536;12.688;2023-05-10T10:34:17;11.90;99.90
22153;DHT22;11242;50.536;12.688;2023-05-10T10:36:47;12.20;99.90
22153;DHT22;11242;50.536;12.688;2023-05-10T10:39:13;12.40;99.90
22153;DHT22;11242;50.536;12.688;2023-05-10T10:41:50;12.70;99.90
22153;DHT22;11242;50.536;12.688;2023-05-10T10:52:33;13.70;99.90
22153;DHT22;11242;50.536;12.688;2023-05-10T10:55:02;14.10;99.90
22153;DHT22;11242;50.536;12.688;2023-05-10T10:57:32;14.10;99.90
22153;DHT22;11242;50.536;12.688;2023-05-10T11:00:30;14.00;99.90
22153;DHT22;11242;50.536;12.688;2023-05-10T11:03:08;14.00;99.90
22153;DHT22;11242;50.536;12.688;2023-05-10T11:05:43;14.00;99.90
22153;DHT22;11242;50.536;12.688;2023-05-10T11:08:28;13.90;99.90
22153;DHT22;11242;50.536;12.688;2023-05-10T11:16:21;13.80;99.90
22153;DHT22;11242;50.536;12.688;2023-05-10T11:18:52;14.30;99.90
22153;DHT22;11242;50.536;12.688;2023-05-10T11:21:18;15.00;99.90
22153;DHT22;11242;50.536;12.688;2023-05-10T11:26:14;15.70;99.90
22153;DHT22;11242;50.536;12.688;2023-05-10T11:31:09;15.90;99.90
22153;DHT22;11242;50.536;12.688;2023-05-10T11:33:51;16.30;99.90
22153;DHT22;11242;50.536;12.688;2023-05-10T11:36:23;16.20;99.90
22153;DHT22;11242;50.536;12.688;2023-05-10T11:38:49;15.50;99.90
22153;DHT22;11242;50.536;12.688;2023-05-10T11:41:17;15.20;99.90
22153;DHT22;11242;50.536;12.688;2023-05-10T11:43:42;15.00;99.90
22153;DHT22;11242;50.536;12.688;2023-05-10T11:46:10;14.90;99.90
22153;DHT22;11242;50.536;12.688;2023-05-10T11:48:40;15.40;99.90
22153;DHT22;11242;50.536;12.688;2023-05-10T11:51:10;15.80;99.90
22153;DHT22;11242;50.536;12.688;2023-05-10T11:53:36;15.80;99.90
22153;DHT22;11242;50.536;12.688;2023-05-10T11:56:07;16.30;99.90
22153;DHT22;11242;50.536;12.688;2023-05-10T11:58:34;16.60;99.90
22153;DHT22;11242;50.536;12.688;2023-05-10T12:01:00;16.30;99.90
22153;DHT22;11242;50.536;12.688;2023-05-10T12:03:27;16.20;99.90
22153;DHT22;11242;50.536;12.688;2023-05-10T12:05:54;16.40;99.90
22153;DHT22;11242;50.536;12.688;2023-05-10T12:08:22;16.40;99.90
22153;DHT22;11242;50.536;12.688;2023-05-10T12:10:48;16.30;99.90
22153;DHT22;11242;50.536;12.688;2023-05-10T12:13:14;16.40;99.90
22153;DHT22;11242;50.536;12.688;2023-05-10T12:15:41;16.40;99.90
22153;DHT22;11242;50.536;12.688;2023-05-10T12:18:14;16.50;99.90
22153;DHT22;11242;50.536;12.688;2023-05-10T12:20:40;16.60;99.90
22153;DHT22;11242;50.536;12.688;2023-05-10T12:23:07;16.70;99.90
22153;DHT22;11242;50.536;12.688;2023-05-10T12:25:34;16.60;99.90
22153;DHT22;11242;50.536;12.688;2023-05-10T12:28:03;16.50;99.90
22153;DHT22;11242;50.536;12.688;2023-05-10T12:30:30;16.10;99.90
22153;DHT22;11242;50.536;12.688;2023-05-10T12:33:06;16.20;99.90
22153;DHT22;11242;50.536;12.688;2023-05-10T12:35:32;16.20;99.90
22153;DHT22;11242;50.536;12.688;2023-05-10T12:37:58;16.50;99.90
22153;DHT22;11242;50.536;12.688;2023-05-10T12:40:24;16.60;99.90
22153;DHT22;11242;50.536;12.688;2023-05-10T12:42:50;16.70;99.90
22153;DHT22;11242;50.536;12.688;2023-05-10T12:45:17;16.80;99.90
22153;DHT22;11242;50.536;12.688;2023-05-10T12:47:43;16.70;99.90
22153;DHT22;11242;50.536;12.688;2023-05-10T12:50:09;16.80;99.90
22153;DHT22;11242;50.536;12.688;2023-05-10T12:52:35;17.00;99.90
22153;DHT22;11242;50.536;12.688;2023-05-10T12:55:01;17.00;99.90
22153;DHT22;11242;50.536;12.688;2023-05-10T12:57:28;16.50;99.90
22153;DHT22;11242;50.536;12.688;2023-05-10T12:59:54;16.70;99.90
22153;DHT22;11242;50.536;12.688;2023-05-10T13:02:20;16.80;99.90
22153;DHT22;11242;50.536;12.688;2023-05-10T13:04:47;16.70;99.90
22153;DHT22;11242;50.536;12.688;2023-05-10T13:07:13;16.50;99.90
22153;DHT22;11242;50.536;12.688;2023-05-10T13:09:39;16.60;99.90
22153;DHT22;11242;50.536;12.688;2023-05-10T13:12:04;16.80;99.90
22153;DHT22;11242;50.536;12.688;2023-05-10T13:14:31;16.10;99.90
22153;DHT22;11242;50.536;12.688;2023-05-10T13:16:56;15.80;99.90
22153;DHT22;11242;50.536;12.688;2023-05-10T13:19:22;15.60;99.90
22153;DHT22;11242;50.536;12.688;2023-05-10T13:21:48;15.50;99.90
22153;DHT22;11242;50.536;12.688;2023-05-10T13:24:13;15.50;99.90
22153;DHT22;11242;50.536;12.688;2023-05-10T13:26:40;15.30;99.90
22153;DHT22;11242;50.536;12.688;2023-05-10T13:29:07;15.30;99.90
22153;DHT22;11242;50.536;12.688;2023-05-10T13:31:33;15.50;99.90
22153;DHT22;11242;50.536;12.688;2023-05-10T13:33:58;15.30;99.90
22153;DHT22;11242;50.536;12.688;2023-05-10T13:36:24;15.00;99.90
22153;DHT22;11242;50.536;12.688;2023-05-10T13:38:50;15.10;99.90
22153;DHT22;11242;50.536;12.688;2023-05-10T13:41:15;15.30;99.90
22153;DHT22;11242;50.536;12.688;2023-05-10T13:43:41;15.40;99.90
22153;DHT22;11242;50.536;12.688;2023-05-10T13:46:06;15.40;99.90
22153;DHT22;11242;50.536;12.688;2023-05-10T13:48:32;15.00;99.90
22153;DHT22;11242;50.536;12.688;2023-05-10T13:50:57;14.90;99.90
22153;DHT22;11242;50.536;12.688;2023-05-10T13:53:23;15.00;99.90
22153;DHT22;11242;50.536;12.688;2023-05-10T13:55:49;14.80;99.90
22153;DHT22;11242;50.536;12.688;2023-05-10T13:58:14;14.90;99.90
22153;DHT22;11242;50.536;12.688;2023-05-10T14:00:40;14.90;99.90
22153;DHT22;11242;50.536;12.688;2023-05-10T14:03:06;14.80;99.90
22153;DHT22;11242;50.536;12.688;2023-05-10T14:05:32;14.80;99.90
22153;DHT22;11242;50.536;12.688;2023-05-10T14:07:58;14.60;99.90
22153;DHT22;11242;50.536;12.688;2023-05-10T14:10:23;14.60;99.90
22153;DHT22;11242;50.536;12.688;2023-05-10T14:12:49;14.90;99.90
22153;DHT22;11242;50.536;12.688;2023-05-10T14:15:15;15.10;99.90
22153;DHT22;11242;50.536;12.688;2023-05-10T14:17:41;14.90;99.90
22153;DHT22;11242;50.536;12.688;2023-05-10T14:20:07;15.20;99.90
22153;DHT22;11242;50.536;12.688;2023-05-10T14:22:32;15.40;99.90
22153;DHT22;11242;50.536;12.688;2023-05-10T14:24:58;15.60;99.90
22153;DHT22;11242;50.536;12.688;2023-05-10T14:27:24;15.60;99.90
22153;DHT22;11242;50.536;12.688;2023-05-10T14:29:49;15.70;99.90
22153;DHT22;11242;50.536;12.688;2023-05-10T14:32:15;15.70;99.90
22153;DHT22;11242;50.536;12.688;2023-05-10T14:34:40;15.90;99.90
22153;DHT22;11242;50.536;12.688;2023-05-10T14:37:06;16.00;99.90
22153;DHT22;11242;50.536;12.688;2023-05-10T14:39:32;16.10;99.90
22153;DHT22;11242;50.536;12.688;2023-05-10T14:41:58;15.80;99.90
22153;DHT22;11242;50.536;12.688;2023-05-10T14:44:24;16.00;99.90
22153;DHT22;11242;50.536;12.688;2023-05-10T14:46:50;15.90;99.90
22153;DHT22;11242;50.536;12.688;2023-05-10T14:49:16;16.10;99.90
22153;DHT22;11242;50.536;12.688;2023-05-10T14:51:41;15.80;99.90
22153;DHT22;11242;50.536;12.688;2023-05-10T14:54:07;15.50;99.90
22153;DHT22;11242;50.536;12.688;2023-05-10T14:56:32;15.40;99.90
22153;DHT22;11242;50.536;12.688;2023-05-10T14:58:58;15.40;99.90
22153;DHT22;11242;50.536;12.688;2023-05-10T15:01:24;15.10;99.90
22153;DHT22;11242;50.536;12.688;2023-05-10T15:03:50;15.00;99.90
22153;DHT22;11242;50.536;12.688;2023-05-10T15:06:16;15.00;99.90
22153;DHT22;11242;50.536;12.688;2023-05-10T15:08:41;15.00;99.90
22153;DHT22;11242;50.536;12.688;2023-05-10T15:11:07;15.00;99.90
22153;DHT22;11242;50.536;12.688;2023-05-10T15:13:33;14.90;99.90
22153;DHT22;11242;50.536;12.688;2023-05-10T15:15:58;14.70;99.90
22153;DHT22;11242;50.536;12.688;2023-05-10T15:18:24;14.70;99.90
22153;DHT22;11242;50.536;12.688;2023-05-10T15:20:49;14.90;99.90
22153;DHT22;11242;50.536;12.688;2023-05-10T15:23:15;15.10;99.90
22153;DHT22;11242;50.536;12.688;2023-05-10T15:25:41;15.20;99.90
22153;DHT22;11242;50.536;12.688;2023-05-10T15:28:06;15.20;99.90
22153;DHT22;11242;50.536;12.688;2023-05-10T15:30:32;15.30;99.90
22153;DHT22;11242;50.536;12.688;2023-05-10T15:32:57;15.50;99.90
22153;DHT22;11242;50.536;12.688;2023-05-10T15:35:23;15.30;99.90
22153;DHT22;11242;50.536;12.688;2023-05-10T15:37:49;15.00;99.90
22153;DHT22;11242;50.536;12.688;2023-05-10T15:40:15;14.60;99.90
22153;DHT22;11242;50.536;12.688;2023-05-10T15:42:40;14.60;99.90
22153;DHT22;11242;50.536;12.688;2023-05-10T15:45:06;14.80;99.90